• Join FlightAware (Why Join?)
  • Login
  • US Flag 
01:12PM EDT


 

Airport Tracker/Info


-or-


 

Live Flight TrackerFlight Track Log ✈ USC105 ✈ 08.05.2013 ✈ KBKL - KYIP

Flight Track Log - Related Links

Times and Time Zones

All times are in EDT time to prevent confusion due to time zone crossing. See the USC105 flight status page for this flight to view local times or setup timezone preferences in your user account.

Time Position Orientation Groundspeed Altitude Reporting Facility
EDT Latitude Longitude Course Direction KTS MPH feet Rate Location/Type
11:18PM 41.5439 -81.6872 354° North 112 129 2,100  Level Cleveland Center
11:19PM 41.5667 -81.7239 310° West 126 145 3,300 1,080 Climbing Cleveland Center
11:20PM 41.5786 -81.7656 291° West 124 143 4,400 1,020 Climbing Cleveland Center
11:21PM 41.5908 -81.8019 294° West 128 147 5,300 960 Climbing Cleveland Center
11:22PM 41.6092 -81.8467 299° West 131 151 6,300 1,020 Climbing Cleveland Center
11:23PM 41.6253 -81.8858 299° West 127 146 7,300 900 Climbing Cleveland Center
11:24PM 41.6414 -81.9306 296° West 136 157 8,100 360 Climbing Cleveland Center
11:25PM 41.6617 -81.9867 296° West 186 214 8,100  Level Cleveland Center
11:26PM 41.6900 -82.0458 303° West 175 201 8,100  Level Cleveland Center
11:27PM 41.7122 -82.1047 297° West 179 206 8,100  Level Cleveland Center
11:28PM 41.7303 -82.1581 294° West 180 207 8,100  Level Cleveland Center
11:29PM 41.7564 -82.2197 300° West 180 207 8,100  Level Cleveland Center
11:30PM 41.7786 -82.2817 296° West 179 206 8,100  Level Cleveland Center
11:31PM 41.8006 -82.3408 296° West 180 207 8,100 -60 Level Cleveland Center
11:32PM 41.8186 -82.3803 302° West 179 206 8,000 -60 Descending Cleveland Center
11:33PM 41.8467 -82.4508 298° West 180 207 8,000  Level Cleveland Center
11:34PM 41.8667 -82.5153 293° West 181 208 8,000  Level Cleveland Center
11:35PM 41.8906 -82.5747 298° West 182 209 8,000  Level Cleveland Center
11:36PM 41.9144 -82.6342 298° West 183 211 8,000 -60 Level Cleveland Center
11:37PM 41.9383 -82.6992 296° West 183 211 7,900 -360 Descending Cleveland Center
11:38PM 41.9619 -82.7669 295° West 197 227 7,300 -540 Descending Cleveland Center
11:39PM 41.9881 -82.8292 299° West 194 223 6,900 -480 Descending Cleveland Center
11:40PM 42.0203 -82.8864 307° West 186 214 6,400 -480 Descending Cleveland Center
11:41PM 42.0567 -82.9436 311° West 184 212 6,000 -240 Descending Cleveland Center
11:42PM 42.0931 -82.9897 317° Northwest 175 201 6,000  Level Cleveland Center
11:43PM 42.1233 -83.0356 312° West 170 196 6,000  Level Cleveland Center
11:44PM 42.1558 -83.0817 314° West 168 193 6,000 -180 Level Cleveland Center
11:45PM 42.1881 -83.1306 312° West 167 192 5,700 -360 Descending Cleveland Center
11:46PM 42.2075 -83.1931 293° West 185 213 5,300 -420 Descending Cleveland Center
11:47PM 42.2311 -83.2556 297° West 183 211 4,900 -240 Descending Cleveland Center
11:48PM 42.2656 -83.2936 321° Northwest 157 181 4,900  Level Cleveland Center
11:49PM 42.3047 -83.3206 333° Northwest 154 177 4,900 -420 Level Cleveland Center
11:50PM 42.3456 -83.3506 331° Northwest 178 205 4,100 -780 Descending Cleveland Center
11:51PM 42.3506 -83.4014 278° West 178 205 3,400 -780 Descending Cleveland Center
11:52PM 42.3103 -83.4303 208° Southwest 178 205 2,700 -840 Descending Cleveland Center
11:53PM 42.2778 -83.4822 230° Southwest 177 204 1,800 -900 Descending Cleveland Center
11:55PM 42.2333 -83.5167 217° Southwest  Level FlightAware Approximate
12:02AM 42.2393 -83.5310 217° Southwest  Level Estimated
12:03AM 42.2393 -83.5310 217° Southwest  Level Estimated